Hovedside
METAR-TAF:

METAR-TAF

Lufthavner :

Rønne, Danmark

Bornholms lufthavn

breddegrad: 55-04N, lengdegrad: 014-45E, høyde over havet: 16 m

Gjeldene værobservasjon

Denne rapporten ble laget for 38 minutter siden, klokken 20:20 UTC
Vind 9 kt fra Vest-nordvest
Temperatur 5°C
Luftfuktighet 87%
Trykk 1025 hPa
Sikt 10 km eller mer

METAR: EKRN 262020Z AUTO 29009KT 9999NDV NCD 05/03 Q1025

Tid: 22:58 (20:58 UTC)

Varsel

Denne rapporten ble laget for 6 timer og 36 minutter siden, klokken 14:22 UTC
Varsel gyldig fra 26. klokken 15 UTC til 26. klokken 21 UTC
Vind 8 kt fra Vest
Sikt 10 km eller mer
ingen skyer under 1500 m og ingen bygeskyer

TAF: EKRN 261422Z 2615/2621 27008KT CAVOK

Værobservasjoner og værvarsel for over 4000 flyplasser (METAR- og TAF-rapporter).

Tilgjengelige stasjoner er representert av de røde og gule prikkene på kartet.

Hold musepekeren over prikken for å se navnet på stasjonen.

Klikk så for å se værobservasjoner og -varsler.

For å forandre kartet kan du klikke på den grønne knappen med svart kryss for å zoome inn, på den grønne knappen med strek for å zoome ut, eller på de grønne pilene for å se tilstøtende kart.


METAR-TAF: